Time;durP1;ratioP1;P1;durP2;ratioP2;P2;SDS_P1;SDS_P2;PMS_P1;PMS_P2;Temp;Humidity;BMP_temperature;BMP_pressure;BME280_temperature;BME280_humidity;BME280_pressure;Samples;Min_cycle;Max_cycle;Signal;HPM_P1;HPM_P2
2023/02/02 00:03:58;;;;;;;4.28;1.20;;;;;;;2.83;94.17;99579.78;10583280;28;20149;-73
2023/02/02 00:09:01;;;;;;;5.18;1.35;;;;;;;2.70;95.50;99580.75;10582521;28;20378;-72
2023/02/02 00:14:03;;;;;;;5.10;1.15;;;;;;;2.80;93.78;99571.19;10582995;28;20131;-72
2023/02/02 00:19:08;;;;;;;3.45;1.10;;;;;;;2.80;92.43;99578.97;10587292;28;20067;-73
2023/02/02 00:24:12;;;;;;;7.22;1.70;;;;;;;2.87;90.83;99565.06;10575681;22;20045;-75
2023/02/02 00:29:18;;;;;;;4.88;1.13;;;;;;;2.89;90.68;99569.38;10508172;28;20111;-74
2023/02/02 00:34:21;;;;;;;5.45;1.55;;;;;;;2.88;91.15;99562.47;10525328;28;20048;-75
2023/02/02 00:39:27;;;;;;;7.95;1.58;;;;;;;3.01;89.43;99556.28;10525670;28;20040;-74
2023/02/02 00:49:49;;;;;;;5.25;1.55;;;;;;;2.93;89.48;99558.09;10533751;28;20130;-74
2023/02/02 00:54:51;;;;;;;5.97;1.50;;;;;;;2.94;89.19;99558.94;10553294;28;20072;-74
2023/02/02 00:59:52;;;;;;;7.43;1.45;;;;;;;2.78;90.00;99558.19;10552217;28;20261;-75
2023/02/02 01:04:54;;;;;;;7.13;1.20;;;;;;;2.94;88.54;99565.00;10552762;28;20118;-75
2023/02/02 01:09:56;;;;;;;7.38;1.75;;;;;;;3.00;87.73;99561.47;10533843;28;20044;-75
2023/02/02 01:14:58;;;;;;;7.65;2.08;;;;;;;2.95;88.21;99545.94;10533478;28;20048;-75
2023/02/02 01:19:59;;;;;;;6.53;1.55;;;;;;;2.99;87.17;99571.00;10553130;28;20058;-75
2023/02/02 01:25:01;;;;;;;8.90;1.55;;;;;;;3.04;86.58;99578.75;10551645;28;20390;-76
2023/02/02 01:30:03;;;;;;;5.45;1.33;;;;;;;3.15;85.50;99558.75;10532965;28;20079;-75
2023/02/02 01:35:06;;;;;;;9.43;1.80;;;;;;;3.13;85.33;99564.84;10532810;28;20056;-75
2023/02/02 01:40:09;;;;;;;6.78;1.60;;;;;;;3.21;85.73;99563.03;10516239;28;20074;-76
2023/02/02 01:45:24;;;;;;;8.32;1.45;;;;;;;3.30;84.77;99552.56;10550581;28;20097;-76
2023/02/02 01:50:31;;;;;;;10.75;1.88;;;;;;;3.21;86.01;99561.28;10550060;28;20060;-75
2023/02/02 01:55:36;;;;;;;4.70;1.45;;;;;;;3.28;85.68;99568.16;10533247;28;20068;-76
2023/02/02 02:00:40;;;;;;;8.88;1.80;;;;;;;3.10;86.23;99541.47;10532250;28;20123;-75
2023/02/02 02:05:52;;;;;;;5.55;1.30;;;;;;;3.21;85.58;99553.50;10535764;28;20116;-75
2023/02/02 02:10:55;;;;;;;7.13;1.33;;;;;;;3.16;85.18;99559.63;10551078;28;20040;-74
2023/02/02 02:16:19;;;;;;;8.07;1.45;;;;;;;3.27;84.29;99555.16;10532523;28;20050;-76
2023/02/02 02:27:31;;;;;;;5.25;1.95;;;;;;;3.13;84.19;99554.44;10533506;28;20051;-76
2023/02/02 02:33:01;;;;;;;6.28;1.75;;;;;;;3.24;82.67;99550.88;10515745;28;20040;-75
2023/02/02 02:38:10;;;;;;;4.00;1.08;;;;;;;3.30;81.64;99560.34;10531110;28;20058;-74
2023/02/02 02:43:19;;;;;;;10.05;1.90;;;;;;;3.39;80.71;99564.59;10531697;28;20044;-76
2023/02/02 02:48:22;;;;;;;7.35;1.45;;;;;;;3.35;81.42;99565.50;10533295;28;20044;-75
2023/02/02 02:53:24;;;;;;;4.95;1.10;;;;;;;3.48;80.54;99565.34;10534292;28;20048;-76
2023/02/02 02:58:40;;;;;;;6.95;1.73;;;;;;;3.51;80.09;99567.91;10535066;28;20398;-77
2023/02/02 03:04:05;;;;;;;10.23;1.40;;;;;;;3.47;80.47;99567.97;10551579;28;20036;-75
2023/02/02 03:09:12;;;;;;;7.15;1.75;;;;;;;3.47;80.62;99561.03;10541411;28;20298;-76
2023/02/02 03:14:13;;;;;;;8.30;1.73;;;;;;;3.51;79.90;99580.91;10532306;28;20085;-76
2023/02/02 03:19:15;;;;;;;6.20;2.00;;;;;;;3.48;79.44;99596.53;10549500;28;20282;-75
2023/02/02 03:24:17;;;;;;;12.68;1.95;;;;;;;3.60;79.10;99599.88;10531012;28;20115;-75
2023/02/02 03:29:19;;;;;;;6.18;1.48;;;;;;;3.49;80.16;99592.19;10547559;28;20040;-75
2023/02/02 03:34:20;;;;;;;9.10;1.70;;;;;;;3.57;79.64;99592.13;10548713;28;20040;-76
2023/02/02 03:39:22;;;;;;;10.23;1.80;;;;;;;3.42;79.92;99586.22;10529237;28;20106;-75
2023/02/02 03:44:24;;;;;;;7.10;1.40;;;;;;;3.58;77.79;99584.28;10546641;28;20130;-76
2023/02/02 03:49:25;;;;;;;4.90;1.45;;;;;;;3.54;78.56;99604.28;10545181;28;20036;-77
2023/02/02 03:54:27;;;;;;;6.75;1.23;;;;;;;3.56;79.10;99606.84;10525881;28;20139;-76
2023/02/02 03:59:29;;;;;;;8.45;2.25;;;;;;;3.64;77.59;99602.44;10543813;28;20039;-75
2023/02/02 04:04:31;;;;;;;7.68;1.90;;;;;;;3.58;78.26;99601.63;10545166;28;20098;-76
2023/02/02 04:09:32;;;;;;;5.70;1.20;;;;;;;3.51;78.42;99598.25;10544192;28;20036;-75
2023/02/02 04:14:34;;;;;;;10.18;1.50;;;;;;;3.68;77.20;99611.06;10544964;28;20043;-76
2023/02/02 04:19:36;;;;;;;6.60;1.60;;;;;;;3.64;77.30;99624.97;10546414;28;20040;-76
2023/02/02 04:24:38;;;;;;;14.07;1.95;;;;;;;3.57;77.78;99631.97;10534958;28;20143;-76
2023/02/02 04:29:39;;;;;;;4.97;1.35;;;;;;;3.55;78.14;99633.72;10552278;28;20040;-77
2023/02/02 04:34:42;;;;;;;9.43;1.48;;;;;;;3.51;78.43;99626.84;10551438;28;20082;-77
2023/02/02 04:39:43;;;;;;;9.13;1.58;;;;;;;3.58;77.71;99641.47;10551260;28;20314;-77
2023/02/02 04:44:45;;;;;;;13.85;3.08;;;;;;;3.62;77.39;99650.09;10550806;28;20504;-77
2023/02/02 04:49:47;;;;;;;8.15;1.90;;;;;;;3.49;78.76;99633.75;10551165;28;20040;-77
2023/02/02 04:54:48;;;;;;;9.65;1.38;;;;;;;3.44;78.48;99644.19;10531779;28;20044;-77
2023/02/02 04:59:50;;;;;;;12.07;2.50;;;;;;;3.46;78.71;99632.06;10549707;28;20047;-76
2023/02/02 05:04:52;;;;;;;6.72;1.92;;;;;;;3.48;77.86;99642.44;10551496;28;20044;-77
2023/02/02 05:09:53;;;;;;;12.90;1.85;;;;;;;3.56;76.93;99656.22;10552508;28;20047;-77
2023/02/02 05:14:55;;;;;;;8.25;1.52;;;;;;;3.54;77.42;99657.97;10552796;28;20404;-76
2023/02/02 05:19:57;;;;;;;6.47;1.75;;;;;;;3.59;77.81;99671.81;10550676;28;20040;-76
2023/02/02 05:24:59;;;;;;;6.65;1.40;;;;;;;3.53;78.13;99680.50;10549151;28;20519;-77
2023/02/02 05:30:01;;;;;;;9.13;2.10;;;;;;;3.52;78.51;99688.31;10549062;28;20046;-77
2023/02/02 05:35:03;;;;;;;12.10;1.65;;;;;;;3.64;77.33;99700.34;10532796;28;20056;-77
2023/02/02 05:40:05;;;;;;;9.57;1.80;;;;;;;3.64;77.48;99700.34;10531102;28;20043;-77
2023/02/02 05:45:07;;;;;;;15.40;2.00;;;;;;;3.62;77.19;99696.88;10549162;28;20082;-77
2023/02/02 05:50:10;;;;;;;8.98;1.83;;;;;;;3.68;76.80;99692.50;10531154;28;20040;-77
2023/02/02 05:55:12;;;;;;;9.38;2.05;;;;;;;3.81;75.47;99706.25;10548105;28;20093;-77
2023/02/02 06:00:14;;;;;;;9.10;1.77;;;;;;;3.80;75.57;99713.16;10547524;28;20036;-76
2023/02/02 06:05:15;;;;;;;9.55;1.80;;;;;;;3.72;76.57;99724.53;10547994;28;20417;-76
2023/02/02 06:10:17;;;;;;;12.90;2.42;;;;;;;3.75;77.80;99735.75;10548671;28;20048;-76
2023/02/02 06:15:19;;;;;;;9.63;1.50;;;;;;;3.73;77.51;99727.13;10514085;28;20048;-76
2023/02/02 06:20:21;;;;;;;8.90;1.92;;;;;;;3.76;77.94;99737.50;10546166;28;20043;-73
2023/02/02 06:25:23;;;;;;;10.02;2.97;;;;;;;3.75;77.55;99745.28;10552100;22;20500;-73
2023/02/02 06:30:26;;;;;;;13.38;2.55;;;;;;;3.77;76.62;99766.97;10586387;28;20416;-73
2023/02/02 06:35:28;;;;;;;13.60;2.67;;;;;;;3.80;76.54;99762.56;10568718;28;20378;-73
2023/02/02 06:40:30;;;;;;;9.77;2.22;;;;;;;3.77;77.37;99769.56;10588697;28;20115;-73
2023/02/02 06:45:31;;;;;;;10.23;1.92;;;;;;;3.70;77.46;99775.66;10584390;28;20085;-73
2023/02/02 06:50:33;;;;;;;15.45;2.40;;;;;;;3.71;77.69;99790.38;10567824;28;20048;-74
2023/02/02 06:55:35;;;;;;;8.38;1.50;;;;;;;3.70;77.91;99799.06;10586466;28;20043;-74
2023/02/02 07:00:37;;;;;;;11.45;1.90;;;;;;;3.71;78.61;99800.78;10586130;28;20077;-73
2023/02/02 07:05:39;;;;;;;9.75;2.30;;;;;;;3.79;78.54;99792.03;10588855;28;20039;-73
2023/02/02 07:10:41;;;;;;;11.25;2.30;;;;;;;3.77;79.47;99805.94;10584999;28;20035;-73
2023/02/02 07:16:04;;;;;;;12.23;2.05;;;;;;;3.71;80.49;99816.38;10584817;28;20093;-73
2023/02/02 07:21:06;;;;;;;11.38;1.70;;;;;;;3.72;80.05;99819.00;10584036;28;20104;-74
2023/02/02 07:26:09;;;;;;;10.60;2.15;;;;;;;3.73;80.27;99817.25;10587344;28;20051;-74
2023/02/02 07:31:25;;;;;;;10.98;2.22;;;;;;;3.83;80.77;99831.03;10583361;28;20035;-73
2023/02/02 07:36:27;;;;;;;8.20;1.48;;;;;;;3.85;81.67;99824.97;10583758;28;20446;-74
2023/02/02 07:41:29;;;;;;;16.65;2.47;;;;;;;3.78;82.33;99831.06;10583389;28;20104;-74
2023/02/02 07:46:31;;;;;;;12.18;2.15;;;;;;;3.85;81.31;99847.47;10568752;28;20546;-74
2023/02/02 07:51:33;;;;;;;9.35;2.00;;;;;;;3.99;79.78;99856.91;10583951;28;20035;-74
2023/02/02 07:56:37;;;;;;;7.40;1.77;;;;;;;3.86;80.74;99865.69;10583790;28;20039;-74
2023/02/02 08:01:39;;;;;;;16.45;2.35;;;;;;;3.93;79.71;99879.47;10583269;28;20035;-74
2023/02/02 08:06:41;;;;;;;19.65;2.72;;;;;;;3.90;80.19;99876.94;10565951;28;20055;-74
2023/02/02 08:11:42;;;;;;;11.40;1.85;;;;;;;3.95;80.49;99869.94;10568729;28;20046;-74
2023/02/02 08:16:44;;;;;;;8.50;1.80;;;;;;;3.87;80.79;99885.59;10583433;28;20039;-74
2023/02/02 08:21:46;;;;;;;10.18;1.92;;;;;;;3.85;81.84;99886.47;10582709;28;20086;-74
2023/02/02 08:26:47;;;;;;;11.02;2.03;;;;;;;3.92;80.92;99895.97;10583168;28;20557;-72
2023/02/02 08:31:49;;;;;;;13.50;2.10;;;;;;;4.07;80.04;99902.78;10583879;28;20047;-73
2023/02/02 08:36:51;;;;;;;11.27;2.53;;;;;;;3.86;81.29;99893.44;10581956;28;20043;-74
2023/02/02 08:41:56;;;;;;;9.13;1.73;;;;;;;4.00;80.48;99908.03;10576920;28;20036;-74
2023/02/02 08:46:58;;;;;;;10.50;2.28;;;;;;;3.96;81.49;99913.28;10560805;28;20087;-75
2023/02/02 08:51:59;;;;;;;10.27;1.65;;;;;;;3.90;82.30;99913.34;10573920;28;20036;-74
2023/02/02 08:57:01;;;;;;;13.30;2.10;;;;;;;4.04;81.12;99921.91;10527008;28;20487;-75
2023/02/02 09:02:03;;;;;;;17.83;2.67;;;;;;;3.82;83.90;99931.56;10547959;28;20040;-75
2023/02/02 09:07:05;;;;;;;20.15;3.45;;;;;;;3.88;84.51;99939.31;10585156;28;20047;-75
2023/02/02 09:12:07;;;;;;;9.57;2.30;;;;;;;3.87;84.76;99932.41;10572263;28;20493;-75
2023/02/02 09:17:08;;;;;;;16.27;4.90;;;;;;;3.90;84.17;99953.19;10593103;28;20132;-76
2023/02/02 09:22:10;;;;;;;18.02;6.88;;;;;;;4.03;83.22;99951.38;10556427;28;20040;-76
2023/02/02 09:27:12;;;;;;;31.63;16.63;;;;;;;4.05;83.83;99953.09;10529268;28;20064;-74
2023/02/02 09:32:14;;;;;;;18.75;6.43;;;;;;;4.09;83.61;99956.53;10546835;28;20037;-75
2023/02/02 09:37:15;;;;;;;15.25;6.70;;;;;;;3.98;84.85;99974.78;10602939;27;20530;-74
2023/02/02 09:42:28;;;;;;;28.23;8.70;;;;;;;3.99;85.26;99976.53;10631004;27;20054;-74
2023/02/02 09:47:46;;;;;;;65.30;19.58;;;;;;;3.96;85.71;99971.34;10628429;27;20039;-75
2023/02/02 09:52:57;;;;;;;55.83;21.25;;;;;;;4.01;85.91;99986.94;10630766;27;20039;-75
2023/02/02 09:58:09;;;;;;;114.50;45.00;;;;;;;4.03;86.31;99996.47;10564558;27;20459;-75
2023/02/02 10:03:36;;;;;;;95.32;38.67;;;;;;;4.15;86.39;99992.03;10573161;28;20040;-76
2023/02/02 10:08:44;;;;;;;27.35;10.98;;;;;;;4.14;86.77;99992.94;10565846;28;20048;-75
2023/02/02 10:13:49;;;;;;;17.17;5.05;;;;;;;4.27;85.33;100007.59;10555707;28;20039;-75
2023/02/02 10:19:08;;;;;;;17.25;7.05;;;;;;;4.19;87.48;100006.75;10587551;28;20134;-75
2023/02/02 10:24:23;;;;;;;17.52;6.50;;;;;;;4.06;90.01;100000.78;10579339;28;20057;-75
2023/02/02 10:29:32;;;;;;;14.10;3.20;;;;;;;4.00;91.66;100006.88;10570344;28;20040;-75
2023/02/02 10:34:55;;;;;;;17.65;3.95;;;;;;;3.76;96.88;100012.19;10544507;28;20401;-73
2023/02/02 10:40:30;;;;;;;10.40;3.40;;;;;;;3.83;96.47;100003.50;10569818;28;20042;-73
2023/02/02 10:45:32;;;;;;;14.98;3.05;;;;;;;3.86;96.86;100016.50;10578910;28;20111;-72
2023/02/02 10:50:34;;;;;;;17.35;3.20;;;;;;;3.92;97.40;100008.66;10542536;28;20051;-73
2023/02/02 10:55:57;;;;;;;9.77;2.25;;;;;;;4.02;96.03;100001.66;10543771;28;20515;-72
2023/02/02 11:01:06;;;;;;;16.20;2.63;;;;;;;4.11;95.79;100021.56;10543751;28;20090;-72
2023/02/02 11:11:44;;;;;;;12.27;2.58;;;;;;;4.29;96.86;100022.31;10546213;28;20036;-74
2023/02/02 11:16:59;;;;;;;16.30;2.85;;;;;;;4.35;95.51;100026.63;10585315;28;20070;-73
2023/02/02 11:22:03;;;;;;;11.10;2.30;;;;;;;4.43;95.53;100032.66;10555946;28;20186;-74
2023/02/02 11:27:16;;;;;;;15.25;3.08;;;;;;;4.34;96.08;100037.91;10545732;28;20040;-74
2023/02/02 11:32:24;;;;;;;10.57;2.75;;;;;;;4.46;95.31;100042.16;10542891;28;20110;-74
2023/02/02 11:37:26;;;;;;;13.27;5.18;;;;;;;4.39;97.57;100043.94;10525495;28;20036;-74
2023/02/02 11:42:43;;;;;;;16.23;2.95;;;;;;;4.53;98.01;100052.50;10543111;28;20120;-74
2023/02/02 11:47:45;;;;;;;16.80;3.78;;;;;;;4.52;98.23;100058.59;10544665;28;20063;-74
2023/02/02 11:52:48;;;;;;;13.98;4.15;;;;;;;4.69;98.87;100061.09;10542479;28;20032;-76
2023/02/02 11:58:19;;;;;;;19.20;4.35;;;;;;;4.72;98.32;100055.84;10544917;28;20036;-78
2023/02/02 12:03:38;;;;;;;16.70;2.78;;;;;;;4.61;97.81;100067.22;10545984;28;20036;-77
2023/02/02 12:08:40;;;;;;;14.25;2.63;;;;;;;4.42;100.00;100066.47;10530197;28;20043;-77
2023/02/02 12:14:06;;;;;;;16.85;2.50;;;;;;;4.15;100.00;100068.34;10573536;27;20042;-76
2023/02/02 12:19:38;;;;;;;13.90;2.88;;;;;;;4.37;99.02;100068.25;10610040;28;20047;-76
2023/02/02 12:24:53;;;;;;;14.95;3.08;;;;;;;4.41;100.00;100064.75;10611355;28;20496;-73
2023/02/02 12:30:09;;;;;;;18.00;3.25;;;;;;;4.73;96.86;100052.34;10627995;28;20047;-73
2023/02/02 12:35:36;;;;;;;15.80;2.42;;;;;;;4.67;96.54;100062.81;10607896;28;20126;-73
2023/02/02 12:40:55;;;;;;;15.45;2.75;;;;;;;4.73;93.59;100069.72;10626012;27;20039;-74
2023/02/02 12:46:22;;;;;;;17.60;2.80;;;;;;;4.71;93.31;100081.91;10634128;27;20108;-73
2023/02/02 12:51:34;;;;;;;12.68;3.17;;;;;;;4.64;93.40;100090.63;10636572;27;20031;-74
2023/02/02 12:56:59;;;;;;;10.20;2.42;;;;;;;4.31;97.43;100092.56;10633421;27;20042;-74
2023/02/02 13:02:18;;;;;;;35.15;14.00;;;;;;;4.47;99.59;100078.59;10633329;27;20100;-74
2023/02/02 13:07:29;;;;;;;41.03;16.00;;;;;;;4.48;98.95;100089.88;10632832;27;20464;-73
2023/02/02 13:12:36;;;;;;;10.35;2.10;;;;;;;4.43;98.12;100097.72;10634148;27;20042;-73
2023/02/02 13:17:42;;;;;;;8.45;1.80;;;;;;;4.59;96.80;100110.63;10634479;27;20066;-73
2023/02/02 13:22:48;;;;;;;14.20;7.13;;;;;;;4.78;93.44;100110.50;10615139;27;20543;-73
2023/02/02 13:27:51;;;;;;;32.05;18.30;;;;;;;4.92;90.80;100106.94;10614537;27;20047;-74
2023/02/02 13:33:01;;;;;;;32.28;14.68;;;;;;;4.85;91.45;100115.66;10633443;27;20477;-74
2023/02/02 13:38:24;;;;;;;11.38;3.20;;;;;;;4.86;87.38;100128.66;10636687;27;20043;-73
2023/02/02 13:43:58;;;;;;;6.50;3.40;;;;;;;4.55;92.52;100139.25;10632315;27;20042;-74
2023/02/02 13:49:13;;;;;;;18.67;8.48;;;;;;;4.67;91.09;100143.53;10417466;28;20050;-73
2023/02/02 13:54:24;;;;;;;8.23;2.50;;;;;;;4.42;96.49;100149.75;10416977;28;20066;-73
2023/02/02 13:59:32;;;;;;;9.27;3.92;;;;;;;4.51;94.90;100163.56;10419829;28;20057;-74
2023/02/02 14:04:34;;;;;;;12.63;3.97;;;;;;;4.59;93.58;100166.16;10418355;28;20049;-73
2023/02/02 14:09:36;;;;;;;11.20;5.28;;;;;;;4.61;92.22;100185.25;10417279;28;20112;-74
2023/02/02 14:14:45;;;;;;;31.70;13.35;;;;;;;4.73;90.65;100177.34;10418539;28;20157;-74
2023/02/02 14:19:55;;;;;;;10.02;3.05;;;;;;;4.85;89.49;100183.38;10418358;28;20056;-73
2023/02/02 14:24:57;;;;;;;9.32;1.90;;;;;;;4.78;89.39;100190.34;10594642;27;20047;-74
2023/02/02 14:29:59;;;;;;;7.85;1.83;;;;;;;4.81;90.47;100191.19;10630283;27;20039;-74
2023/02/02 14:35:07;;;;;;;9.50;1.48;;;;;;;4.78;94.27;100198.16;10593371;27;20492;-74
2023/02/02 14:40:14;;;;;;;10.30;2.80;;;;;;;4.64;95.37;100213.00;10609624;27;20581;-74
2023/02/02 14:45:25;;;;;;;9.50;2.53;;;;;;;4.57;94.81;100225.19;10627225;27;20039;-74
2023/02/02 14:50:36;;;;;;;7.72;2.47;;;;;;;4.52;94.18;100222.59;10626199;27;20043;-74
2023/02/02 14:56:12;;;;;;;8.68;1.85;;;;;;;4.45;95.03;100236.50;10629106;27;20152;-73
2023/02/02 15:01:16;;;;;;;9.82;2.42;;;;;;;4.47;93.85;100239.97;10602804;27;20130;-73
2023/02/02 15:06:21;;;;;;;9.80;2.05;;;;;;;4.34;94.27;100253.91;10627973;27;20130;-73
2023/02/02 15:11:30;;;;;;;9.95;2.35;;;;;;;4.37;94.15;100263.44;10628874;27;20035;-74
2023/02/02 15:16:36;;;;;;;9.93;2.50;;;;;;;4.29;94.35;100268.63;10610983;27;20043;-74
2023/02/02 15:21:39;;;;;;;7.70;2.47;;;;;;;4.27;94.70;100273.00;10628217;27;20035;-74
2023/02/02 15:26:43;;;;;;;10.75;2.55;;;;;;;4.30;94.29;100279.06;10631704;27;20428;-74
2023/02/02 15:31:48;;;;;;;7.10;2.10;;;;;;;4.15;95.57;100299.03;10628275;27;20070;-74
2023/02/02 15:36:55;;;;;;;9.30;2.53;;;;;;;4.28;96.40;100317.22;10610308;27;20416;-74
2023/02/02 15:47:32;;;;;;;16.42;7.35;;;;;;;4.03;99.53;100328.56;10629725;27;20039;-73
2023/02/02 15:52:45;;;;;;;6.88;2.22;;;;;;;4.01;98.44;100340.66;10608799;27;20070;-73
2023/02/02 15:57:47;;;;;;;10.88;2.00;;;;;;;4.11;97.29;100358.00;10608863;27;20104;-73
2023/02/02 16:02:56;;;;;;;9.40;2.55;;;;;;;4.04;98.93;100380.56;10628645;27;20043;-73
2023/02/02 16:07:59;;;;;;;5.22;2.13;;;;;;;3.90;100.00;100387.50;10629728;27;20416;-73
2023/02/02 16:13:16;;;;;;;7.10;2.72;;;;;;;3.80;100.00;100399.59;10607849;27;20039;-72
2023/02/02 16:18:18;;;;;;;4.75;2.22;;;;;;;3.75;100.00;100422.13;10625673;27;20131;-72
2023/02/02 16:23:26;;;;;;;12.02;3.28;;;;;;;3.61;100.00;100417.78;10625678;28;20043;-71
2023/02/02 16:28:28;;;;;;;8.48;3.15;;;;;;;3.45;100.00;100461.91;10628794;28;20460;-72
2023/02/02 16:33:40;;;;;;;7.22;2.80;;;;;;;3.32;100.00;100482.63;10625863;28;20065;-71
2023/02/02 16:38:42;;;;;;;9.77;3.55;;;;;;;3.13;100.00;100486.84;10626626;28;20043;-71
2023/02/02 16:43:44;;;;;;;4.63;1.60;;;;;;;3.03;100.00;100484.22;10624704;28;20058;-72
2023/02/02 16:48:58;;;;;;;5.97;2.17;;;;;;;3.04;100.00;100493.72;10626666;28;20103;-71
2023/02/02 16:54:16;;;;;;;10.77;1.98;;;;;;;2.86;100.00;100498.81;10628803;28;20039;-72
2023/02/02 16:59:26;;;;;;;3.85;1.58;;;;;;;2.78;100.00;100508.25;10629023;28;20092;-72
2023/02/02 17:04:31;;;;;;;6.88;1.73;;;;;;;2.70;100.00;100512.53;10628884;28;20035;-70
2023/02/02 17:09:36;;;;;;;11.25;2.13;;;;;;;2.91;100.00;100525.66;10627330;28;20450;-73
2023/02/02 17:14:55;;;;;;;23.73;20.15;;;;;;;2.97;100.00;100528.31;10635878;28;20039;-72
2023/02/02 17:19:57;;;;;;;11.32;3.63;;;;;;;2.91;100.00;100538.66;10623744;28;20046;-71
2023/02/02 17:24:58;;;;;;;22.70;13.07;;;;;;;2.71;100.00;100542.84;10605919;28;20118;-71
2023/02/02 17:30:02;;;;;;;10.50;3.60;;;;;;;2.70;100.00;100554.06;10630099;27;20061;-71
2023/02/02 17:35:23;;;;;;;8.20;4.00;;;;;;;2.75;100.00;100567.97;10633823;27;20039;-71
2023/02/02 17:40:25;;;;;;;13.88;5.35;;;;;;;2.70;100.00;100569.63;10631547;27;20039;-71
2023/02/02 17:45:35;;;;;;;10.02;4.47;;;;;;;2.99;100.00;100595.84;10631734;27;20038;-71
2023/02/02 17:50:38;;;;;;;9.82;4.97;;;;;;;2.90;100.00;100604.44;10631123;27;20506;-71
2023/02/02 17:55:42;;;;;;;16.50;14.20;;;;;;;2.94;100.00;100618.31;10633542;27;20049;-71
2023/02/02 18:00:46;;;;;;;11.25;5.00;;;;;;;2.72;100.00;100625.91;10631082;27;20046;-72
2023/02/02 18:05:48;;;;;;;20.67;14.88;;;;;;;2.77;100.00;100619.03;10630994;27;20073;-72
2023/02/02 18:10:50;;;;;;;27.02;14.88;;;;;;;3.01;100.00;100607.09;10630672;27;20122;-72
2023/02/02 18:15:54;;;;;;;14.95;9.02;;;;;;;3.08;100.00;100611.50;10631100;27;20079;-72
2023/02/02 18:20:57;;;;;;;15.05;7.90;;;;;;;2.99;100.00;100621.81;10614610;27;20047;-72
2023/02/02 18:26:16;;;;;;;10.98;4.72;;;;;;;3.13;100.00;100620.19;10621516;22;20044;-77
2023/02/02 18:31:20;;;;;;;6.35;3.65;;;;;;;3.10;100.00;100632.28;10528560;28;20071;-76
2023/02/02 18:36:22;;;;;;;8.32;3.55;;;;;;;3.21;100.00;100634.13;10548737;28;20035;-78
2023/02/02 18:41:24;;;;;;;20.58;4.38;;;;;;;3.19;100.00;100635.84;10548068;28;20040;-76
2023/02/02 18:46:26;;;;;;;6.90;3.40;;;;;;;3.06;100.00;100644.41;10547286;28;20068;-77
2023/02/02 18:51:30;;;;;;;9.05;3.00;;;;;;;3.29;100.00;100634.19;10530152;28;20055;-77
2023/02/02 18:56:32;;;;;;;4.75;2.90;;;;;;;3.23;100.00;100642.81;10548298;28;20408;-77
2023/02/02 19:01:34;;;;;;;5.63;3.17;;;;;;;3.07;100.00;100653.94;10548589;28;20124;-77
2023/02/02 19:11:57;;;;;;;7.45;3.53;;;;;;;2.94;100.00;100652.09;10548195;28;20044;-76
2023/02/02 19:17:15;;;;;;;8.73;3.20;;;;;;;2.81;100.00;100658.00;10549305;28;20051;-77
2023/02/02 19:22:20;;;;;;;8.90;2.22;;;;;;;2.82;100.00;100657.16;10529918;28;20123;-77
2023/02/02 19:27:25;;;;;;;12.32;2.97;;;;;;;2.83;100.00;100659.75;10531030;28;20036;-78
2023/02/02 19:32:31;;;;;;;9.18;3.08;;;;;;;2.66;100.00;100658.75;10531625;28;20052;-78
2023/02/02 19:37:38;;;;;;;6.90;2.80;;;;;;;2.66;100.00;100661.34;10531617;28;20078;-78
2023/02/02 19:42:45;;;;;;;;;;;;;;;2.64;100.00;100663.03;10514225;28;20047;-76
2023/02/02 19:47:50;;;;;;;6.15;3.20;;;;;;;2.71;100.00;100663.13;10534414;28;19927;-77
2023/02/02 19:52:54;;;;;;;7.78;2.72;;;;;;;2.75;100.00;100672.69;10528417;28;20486;-78
2023/02/02 19:58:08;;;;;;;18.17;4.05;;;;;;;2.63;100.00;100667.34;10529891;28;20067;-78
2023/02/02 20:03:35;;;;;;;9.73;3.45;;;;;;;2.77;100.00;100672.69;10547583;28;20477;-79
2023/02/02 20:08:42;;;;;;;6.68;2.78;;;;;;;2.76;100.00;100670.94;10530150;28;20083;-76
2023/02/02 20:13:47;;;;;;;9.00;3.42;;;;;;;2.74;100.00;100672.63;10532528;28;20040;-77
2023/02/02 20:18:55;;;;;;;7.00;3.90;;;;;;;2.65;100.00;100681.22;10546824;28;20054;-77
2023/02/02 20:23:57;;;;;;;8.20;2.63;;;;;;;2.61;100.00;100681.16;10529974;28;20066;-77
2023/02/02 20:29:12;;;;;;;6.82;2.90;;;;;;;2.72;100.00;100672.63;10547125;28;20040;-77
2023/02/02 20:34:17;;;;;;;5.97;2.63;;;;;;;2.62;100.00;100678.59;10545063;28;20519;-77
2023/02/02 20:39:26;;;;;;;6.95;2.65;;;;;;;2.71;100.00;100683.03;10546600;28;20089;-78
2023/02/02 20:44:31;;;;;;;7.05;2.75;;;;;;;2.41;100.00;100684.41;10545194;28;20036;-76
2023/02/02 20:49:34;;;;;;;7.50;2.90;;;;;;;2.48;100.00;100683.63;10543910;28;20040;-77
2023/02/02 20:54:37;;;;;;;5.55;2.63;;;;;;;2.50;100.00;100687.09;10526954;28;20040;-77
2023/02/02 20:59:39;;;;;;;6.57;2.80;;;;;;;2.56;100.00;100685.44;10545357;28;20067;-77
2023/02/02 21:04:45;;;;;;;8.70;3.58;;;;;;;2.71;100.00;100683.88;10532099;28;20484;-77
2023/02/02 21:09:49;;;;;;;5.72;2.72;;;;;;;2.53;100.00;100681.97;10551947;28;20040;-77
2023/02/02 21:14:52;;;;;;;5.57;2.38;;;;;;;2.57;100.00;100677.69;10550489;28;20036;-77
2023/02/02 21:19:54;;;;;;;6.38;2.25;;;;;;;2.67;100.00;100676.06;10549833;28;20429;-77
2023/02/02 21:24:56;;;;;;;6.50;2.78;;;;;;;2.63;100.00;100677.75;10551824;28;20359;-77
2023/02/02 21:29:57;;;;;;;10.07;3.30;;;;;;;2.64;100.00;100670.81;10551118;28;20042;-78
2023/02/02 21:34:59;;;;;;;6.63;2.75;;;;;;;2.69;100.00;100674.31;10550470;28;20135;-77
2023/02/02 21:40:09;;;;;;;8.93;3.15;;;;;;;2.69;100.00;100676.91;10550837;28;20389;-77
2023/02/02 21:45:34;;;;;;;6.47;3.22;;;;;;;2.64;100.00;100671.69;10549186;28;20119;-76
2023/02/02 21:50:39;;;;;;;6.88;2.83;;;;;;;2.55;100.00;100660.34;10548961;28;20119;-77
2023/02/02 21:55:43;;;;;;;4.13;2.25;;;;;;;2.62;100.00;100669.94;10530507;28;20044;-78
2023/02/02 22:00:45;;;;;;;7.28;3.08;;;;;;;2.39;100.00;100661.88;10549268;28;20040;-76
2023/02/02 22:05:47;;;;;;;7.07;2.90;;;;;;;2.39;100.00;100677.44;10548537;28;20135;-77
2023/02/02 22:10:48;;;;;;;4.10;2.45;;;;;;;2.42;100.00;100670.56;10548737;28;20090;-76
2023/02/02 22:15:52;;;;;;;5.70;2.90;;;;;;;2.50;100.00;100663.75;10546782;28;20098;-77
2023/02/02 22:20:55;;;;;;;6.82;2.83;;;;;;;2.55;100.00;100665.53;10547734;28;20073;-77
2023/02/02 22:25:57;;;;;;;9.70;3.38;;;;;;;2.58;100.00;100668.16;10548374;28;20040;-77
2023/02/02 22:30:59;;;;;;;7.45;2.47;;;;;;;2.54;100.00;100654.28;10548551;28;20055;-77
2023/02/02 22:36:01;;;;;;;9.23;2.92;;;;;;;2.49;100.00;100661.16;10548570;28;20039;-77
2023/02/02 22:41:05;;;;;;;6.47;2.75;;;;;;;2.48;100.00;100662.88;10547887;28;20279;-76
2023/02/02 22:46:06;;;;;;;7.63;2.55;;;;;;;2.47;100.00;100663.72;10547510;28;20044;-76
2023/02/02 22:51:08;;;;;;;8.60;2.85;;;;;;;2.57;100.00;100656.03;10547512;28;20152;-75
2023/02/02 22:56:10;;;;;;;9.73;3.38;;;;;;;2.53;100.00;100657.75;10548747;28;20048;-76
2023/02/02 23:01:12;;;;;;;14.70;3.33;;;;;;;2.49;100.00;100651.63;10531071;28;20036;-77
2023/02/02 23:06:14;;;;;;;7.88;3.85;;;;;;;2.62;100.00;100637.06;10548220;28;20044;-76
2023/02/02 23:11:16;;;;;;;8.70;4.40;;;;;;;2.76;100.00;100643.25;10549660;28;20036;-76
2023/02/02 23:16:17;;;;;;;7.95;3.30;;;;;;;2.69;100.00;100637.97;10529987;28;20090;-76
2023/02/02 23:21:19;;;;;;;5.45;2.90;;;;;;;2.60;100.00;100632.72;10530586;28;20052;-77
2023/02/02 23:26:22;;;;;;;6.38;3.40;;;;;;;2.56;100.00;100625.75;10513027;28;20044;-77
2023/02/02 23:31:23;;;;;;;7.25;4.68;;;;;;;2.51;100.00;100636.06;10546741;28;20043;-75
2023/02/02 23:36:25;;;;;;;8.73;3.95;;;;;;;2.68;100.00;100644.03;10546809;28;20137;-77
2023/02/02 23:41:27;;;;;;;6.65;4.05;;;;;;;2.66;100.00;100644.03;10546965;28;20118;-76
2023/02/02 23:46:29;;;;;;;8.93;4.15;;;;;;;2.78;100.00;100632.88;10528368;28;20044;-77
2023/02/02 23:51:31;;;;;;;8.27;3.75;;;;;;;2.71;100.00;100628.50;10546914;28;20048;-76
2023/02/02 23:56:33;;;;;;;7.38;4.13;;;;;;;2.68;100.00;100625.88;10531097;28;20044;-78
